Time;durP1;ratioP1;P1;durP2;ratioP2;P2;SDS_P1;SDS_P2;PMS_P1;PMS_P2;Temp;Humidity;BMP_temperature;BMP_pressure;BME280_temperature;BME280_humidity;BME280_pressure;Samples;Min_cycle;Max_cycle;Signal;HPM_P1;HPM_P2
2022/02/01 00:39:29;;;;;;;14.13;3.90;;;1.10;99.90;;;;;;20911107;28;20027;-74
2022/02/01 00:49:32;;;;;;;12.00;3.95;;;1.10;99.90;;;;;;20892698;28;20040;-74
2022/02/01 00:59:33;;;;;;;10.38;3.65;;;1.10;99.90;;;;;;20892025;28;20033;-74
2022/02/01 01:09:34;;;;;;;13.20;4.47;;;1.20;99.90;;;;;;20908341;28;20053;-74
2022/02/01 02:01:11;;;;;;;11.75;3.65;;;1.20;99.90;;;;;;20903521;28;20589;-75
2022/02/01 02:21:37;;;;;;;14.02;3.55;;;1.20;99.90;;;;;;20913363;28;20025;-75
2022/02/01 02:31:39;;;;;;;12.90;2.83;;;1.20;99.90;;;;;;20898460;28;20511;-75
2022/02/01 02:41:51;;;;;;;5.88;3.28;;;1.20;99.90;;;;;;20878653;28;1149470;-75
2022/02/01 02:51:52;;;;;;;20.58;4.53;;;1.20;99.90;;;;;;20920325;28;20048;-74
2022/02/01 03:01:54;;;;;;;13.15;4.50;;;1.20;99.90;;;;;;20919386;28;20029;-75
2022/02/01 03:11:58;;;;;;;15.90;4.05;;;1.30;99.90;;;;;;20918367;28;20040;-75
2022/02/01 03:21:59;;;;;;;16.98;4.15;;;1.30;99.90;;;;;;20900194;28;20111;-75
2022/02/01 03:32:00;;;;;;;21.08;4.30;;;1.30;99.90;;;;;;20916402;28;20056;-75
2022/02/01 03:42:01;;;;;;;14.13;4.82;;;1.30;99.90;;;;;;20914525;28;20059;-75
2022/02/01 03:52:04;;;;;;;13.38;4.15;;;1.40;99.90;;;;;;20915543;28;20029;-75
2022/02/01 04:02:05;;;;;;;18.73;3.90;;;1.40;99.90;;;;;;20914700;28;20662;-75
2022/02/01 04:12:06;;;;;;;27.38;4.85;;;1.40;99.90;;;;;;20914044;28;20108;-75
2022/02/01 04:22:07;;;;;;;22.15;4.40;;;1.40;99.90;;;;;;20913068;28;20036;-75
2022/02/01 04:32:08;;;;;;;29.98;4.72;;;1.40;99.90;;;;;;20912453;28;20391;-75
2022/02/01 04:42:09;;;;;;;20.70;4.38;;;1.40;99.90;;;;;;20910993;28;20505;-75
2022/02/01 04:52:10;;;;;;;15.52;4.60;;;1.30;99.90;;;;;;20910568;28;20043;-75
2022/02/01 05:02:11;;;;;;;31.40;6.72;;;1.40;99.90;;;;;;20910210;28;20025;-75
2022/02/01 05:12:12;;;;;;;13.27;3.58;;;1.40;99.90;;;;;;20909508;28;20063;-75
2022/02/01 05:22:16;;;;;;;17.50;4.22;;;1.40;99.90;;;;;;20908702;28;20115;-74
2022/02/01 05:32:24;;;;;;;15.85;3.78;;;1.40;99.90;;;;;;20907202;28;20096;-75
2022/02/01 05:42:36;;;;;;;26.77;4.55;;;1.30;99.90;;;;;;20907537;28;20029;-75
2022/02/01 05:52:37;;;;;;;20.50;4.47;;;1.20;99.90;;;;;;20917531;28;20040;-74
2022/02/01 06:02:37;;;;;;;34.88;5.45;;;1.20;99.90;;;;;;20933154;28;20480;-75
2022/02/01 06:12:40;;;;;;;21.90;4.40;;;1.20;99.90;;;;;;20874682;22;20046;-78
2022/02/01 06:22:41;;;;;;;18.52;4.03;;;1.20;99.90;;;;;;20852680;28;20048;-79
2022/02/01 06:32:42;;;;;;;23.67;5.07;;;1.30;99.90;;;;;;20849256;28;20040;-78
2022/02/01 06:42:43;;;;;;;19.40;3.67;;;1.30;99.90;;;;;;20872531;28;20025;-79
2022/02/01 06:52:43;;;;;;;26.52;5.05;;;1.30;99.90;;;;;;20878496;28;20040;-79
2022/02/01 07:02:44;;;;;;;12.15;3.15;;;1.30;99.90;;;;;;20870584;28;20030;-79
2022/02/01 07:12:45;;;;;;;16.77;3.80;;;1.30;99.90;;;;;;20844922;28;20061;-79
2022/02/01 07:22:48;;;;;;;15.40;3.30;;;1.30;99.90;;;;;;20842039;28;20025;-79
2022/02/01 07:32:49;;;;;;;15.05;3.20;;;1.30;99.90;;;;;;20834336;28;20029;-79
2022/02/01 07:42:50;;;;;;;12.57;2.80;;;1.30;99.90;;;;;;20833655;28;20546;-78
2022/02/01 07:52:51;;;;;;;20.67;3.33;;;1.30;99.90;;;;;;20848789;28;20045;-78
2022/02/01 08:02:55;;;;;;;23.10;3.90;;;1.30;99.90;;;;;;20831690;28;20606;-79
2022/02/01 08:32:58;;;;;;;22.65;3.25;;;1.10;99.90;;;;;;20833892;28;20120;-78
2022/02/01 08:42:59;;;;;;;22.70;4.30;;;1.20;99.90;;;;;;20846925;28;20056;-77
2022/02/01 08:53:12;;;;;;;12.60;3.33;;;1.20;99.90;;;;;;20795681;28;20033;-78
2022/02/01 09:03:13;;;;;;;8.25;2.97;;;1.30;99.90;;;;;;20804647;28;20044;-79
2022/02/01 09:13:14;;;;;;;11.52;3.65;;;1.50;99.90;;;;;;20765477;28;20029;-79
2022/02/01 09:23:15;;;;;;;10.00;2.97;;;1.60;99.90;;;;;;20776795;28;20034;-76
2022/02/01 09:33:16;;;;;;;7.95;2.78;;;1.60;99.90;;;;;;20729641;28;20528;-78
2022/02/01 09:43:17;;;;;;;18.05;3.25;;;1.70;99.90;;;;;;20731162;28;20026;-76
2022/02/01 09:53:20;;;;;;;16.52;3.20;;;1.70;99.90;;;;;;20767452;28;20037;-77
2022/02/01 10:03:21;;;;;;;12.70;2.88;;;1.60;99.90;;;;;;20725707;28;20030;-77
2022/02/01 10:13:22;;;;;;;22.55;4.25;;;1.50;99.90;;;;;;20707802;28;20045;-76
2022/02/01 10:23:26;;;;;;;20.27;3.88;;;1.50;99.90;;;;;;20762129;28;20041;-76
2022/02/01 10:44:01;;;;;;;14.57;2.72;;;1.80;99.90;;;;;;20734787;28;20129;-76
2022/02/01 10:54:03;;;;;;;12.40;3.05;;;2.00;99.90;;;;;;20779940;28;20034;-77
2022/02/01 11:04:05;;;;;;;15.07;2.28;;;2.10;99.90;;;;;;20777137;28;20057;-78
2022/02/01 11:14:06;;;;;;;10.43;2.65;;;2.20;99.90;;;;;;20742167;28;20038;-77
2022/02/01 11:24:09;;;;;;;11.23;2.08;;;2.20;99.90;;;;;;20784566;28;20040;-77
2022/02/01 11:34:29;;;;;;;7.68;2.08;;;2.30;99.90;;;;;;20748583;28;20408;-77
2022/02/01 11:44:34;;;;;;;9.20;1.95;;;2.30;99.90;;;;;;20727896;28;20033;-77
2022/02/01 11:54:36;;;;;;;8.60;1.92;;;2.30;99.90;;;;;;20758103;28;20050;-77
2022/02/01 12:04:42;;;;;;;11.30;2.72;;;2.40;99.90;;;;;;20767545;28;20120;-77
2022/02/01 12:14:43;;;;;;;6.53;1.85;;;2.50;99.90;;;;;;20781529;22;20767;-77
2022/02/01 12:24:43;;;;;;;7.60;1.33;;;2.40;99.90;;;;;;20749256;28;20108;-77
2022/02/01 12:34:47;;;;;;;7.45;1.58;;;2.30;99.90;;;;;;20743793;28;20113;-76
2022/02/01 12:54:59;;;;;;;8.30;1.63;;;2.40;99.90;;;;;;20668158;28;20058;-76
2022/02/01 13:05:03;;;;;;;5.37;1.80;;;2.60;99.90;;;;;;20664364;28;20487;-77
2022/02/01 13:15:27;;;;;;;7.80;1.30;;;2.70;99.90;;;;;;20688886;28;20515;-76
2022/02/01 13:25:38;;;;;;;4.55;1.42;;;2.80;99.90;;;;;;20744910;28;20414;-75
2022/02/01 13:35:51;;;;;;;9.73;1.23;;;2.90;99.90;;;;;;20744394;28;20037;-76
2022/02/01 13:45:54;;;;;;;7.20;1.65;;;3.00;99.90;;;;;;20685790;28;20417;-76
2022/02/01 13:56:04;;;;;;;6.43;1.58;;;3.00;99.90;;;;;;20662098;28;20031;-76
2022/02/01 14:06:45;;;;;;;10.13;1.97;;;3.00;99.90;;;;;;20686956;28;20022;-76
2022/02/01 14:37:41;;;;;;;11.43;1.52;;;2.80;99.90;;;;;;20654954;28;20201;-76
2022/02/01 14:47:42;;;;;;;7.93;2.08;;;2.60;99.90;;;;;;20675287;28;20119;-76
2022/02/01 15:18:09;;;;;;;16.45;2.38;;;2.50;99.90;;;;;;20655803;28;20522;-76
2022/02/01 15:28:11;;;;;;;6.75;2.33;;;3.10;99.90;;;;;;20671772;28;20066;-77
2022/02/01 15:38:15;;;;;;;8.52;2.13;;;3.90;99.90;;;;;;20673658;28;20117;-77
2022/02/01 15:58:28;;;;;;;8.13;2.40;;;3.20;99.90;;;;;;20670246;28;20030;-78
2022/02/01 16:08:36;;;;;;;6.55;2.30;;;2.70;99.90;;;;;;20669275;28;20516;-78
2022/02/01 16:18:38;;;;;;;6.32;2.30;;;2.50;99.90;;;;;;20650915;28;20512;-78
2022/02/01 16:28:39;;;;;;;19.27;2.80;;;2.20;99.90;;;;;;20666299;28;20042;-78
2022/02/01 16:38:40;;;;;;;17.90;4.65;;;1.70;99.90;;;;;;20649050;28;20030;-78
2022/02/01 16:48:41;;;;;;;22.60;4.72;;;1.20;99.90;;;;;;20666064;28;20029;-77
2022/02/01 16:58:53;;;;;;;13.02;4.13;;;1.10;99.90;;;;;;20647834;28;20031;-77
2022/02/01 17:08:53;;;;;;;11.52;4.75;;;1.10;99.90;;;;;;20664554;28;20088;-77
2022/02/01 17:19:13;;;;;;;13.07;5.32;;;0.90;99.90;;;;;;20664414;28;20030;-77
2022/02/01 17:29:14;;;;;;;13.48;6.50;;;0.80;99.90;;;;;;20663218;28;20066;-77
2022/02/01 17:39:14;;;;;;;19.10;7.55;;;0.70;99.90;;;;;;20662567;28;20433;-77
2022/02/01 17:49:17;;;;;;;18.25;8.20;;;0.70;99.90;;;;;;20664277;28;20091;-77
2022/02/01 17:59:20;;;;;;;32.13;11.05;;;0.70;99.90;;;;;;20676447;28;20713;-77
2022/02/01 18:09:26;;;;;;;25.00;10.48;;;0.60;99.90;;;;;;20710003;23;20048;-82
2022/02/01 18:19:32;;;;;;;29.55;10.70;;;0.60;99.90;;;;;;20819466;28;20391;-79
2022/02/01 18:29:39;;;;;;;27.23;9.93;;;0.60;99.90;;;;;;20718045;28;20378;-80
2022/02/01 18:40:05;;;;;;;22.52;8.02;;;0.80;99.90;;;;;;20682767;28;20039;-81
2022/02/01 19:20:56;;;;;;;15.80;6.10;;;1.40;99.90;;;;;;20657552;28;20420;-81
2022/02/01 19:31:06;;;;;;;6.82;3.40;;;1.40;99.90;;;;;;20673692;28;20045;-81
2022/02/01 19:41:11;;;;;;;5.30;3.67;;;1.80;99.90;;;;;;20658815;28;20088;-80
2022/02/01 19:51:13;;;;;;;6.55;3.47;;;2.10;99.90;;;;;;20703222;28;20038;-81
2022/02/01 20:01:18;;;;;;;5.22;2.88;;;2.20;99.90;;;;;;20683534;28;20034;-81
2022/02/01 20:11:19;;;;;;;8.80;4.35;;;2.30;99.90;;;;;;20689428;28;20428;-80
2022/02/01 20:21:20;;;;;;;5.50;3.33;;;2.50;99.90;;;;;;20690500;28;20103;-79
2022/02/01 20:31:21;;;;;;;4.75;3.15;;;2.60;99.90;;;;;;20690869;28;20030;-80
2022/02/01 20:41:26;;;;;;;8.50;3.40;;;2.70;99.90;;;;;;20685383;28;20089;-79
2022/02/01 20:51:27;;;;;;;12.40;7.00;;;2.90;99.90;;;;;;20701177;28;20253;-79
2022/02/01 21:01:28;;;;;;;3.67;2.70;;;2.90;99.90;;;;;;20697573;28;20034;-79
2022/02/01 21:11:29;;;;;;;8.13;4.18;;;2.90;99.90;;;;;;20685740;28;20088;-78
2022/02/01 21:21:30;;;;;;;13.77;3.95;;;3.10;99.90;;;;;;20701078;28;20034;-79
2022/02/01 21:31:31;;;;;;;9.93;4.18;;;3.20;99.90;;;;;;20701666;28;20030;-79
2022/02/01 21:41:33;;;;;;;5.40;2.90;;;3.20;99.90;;;;;;20700046;28;20035;-77
2022/02/01 21:51:34;;;;;;;3.65;2.90;;;3.30;99.90;;;;;;20685885;28;20040;-78
2022/02/01 22:01:36;;;;;;;8.80;5.30;;;3.30;99.90;;;;;;20702334;28;20477;-80
2022/02/01 22:11:37;;;;;;;6.85;3.95;;;3.50;99.90;;;;;;20691883;28;20041;-79
2022/02/01 22:21:38;;;;;;;6.68;3.05;;;3.50;99.90;;;;;;20696051;28;20041;-78
2022/02/01 22:31:39;;;;;;;5.72;3.38;;;3.60;99.90;;;;;;20717139;28;20503;-78
2022/02/01 22:41:39;;;;;;;11.60;3.83;;;3.70;99.90;;;;;;20705189;28;20031;-78
2022/02/01 22:51:40;;;;;;;;;;;3.70;99.90;;;;;;20721210;28;20084;-80
2022/02/01 23:01:44;;;;;;;5.38;3.15;;;3.80;99.90;;;;;;20706275;28;19913;-78
2022/02/01 23:21:47;;;;;;;;;;;3.80;99.90;;;;;;20776408;28;20057;-81
2022/02/01 23:32:06;;;;;;;12.67;5.97;;;3.90;99.90;;;;;;20758212;28;19921;-82
2022/02/01 23:52:17;;;;;;;10.18;4.53;;;3.80;99.90;;;;;;20749874;28;20040;-82
